sensor_id;sensor_type;location;lat;lon;timestamp;P1;durP1;ratioP1;P2;durP2;ratioP2
65533;SDS011;53640;55.838;37.184;2022-10-31T00:00:54;2.08;;;0.50;;
65533;SDS011;53640;55.838;37.184;2022-10-31T00:03:21;0.30;;;0.30;;
65533;SDS011;53640;55.838;37.184;2022-10-31T00:05:48;0.50;;;0.35;;
65533;SDS011;53640;55.838;37.184;2022-10-31T00:08:16;0.45;;;0.40;;
65533;SDS011;53640;55.838;37.184;2022-10-31T00:10:43;0.60;;;0.38;;
65533;SDS011;53640;55.838;37.184;2022-10-31T00:13:13;2.88;;;0.45;;
65533;SDS011;53640;55.838;37.184;2022-10-31T00:15:40;1.40;;;0.40;;
65533;SDS011;53640;55.838;37.184;2022-10-31T00:18:07;1.35;;;0.50;;
65533;SDS011;53640;55.838;37.184;2022-10-31T00:20:35;1.27;;;0.50;;
65533;SDS011;53640;55.838;37.184;2022-10-31T00:23:04;0.95;;;0.50;;
65533;SDS011;53640;55.838;37.184;2022-10-31T00:25:35;0.40;;;0.30;;
65533;SDS011;53640;55.838;37.184;2022-10-31T00:28:04;0.63;;;0.50;;
65533;SDS011;53640;55.838;37.184;2022-10-31T00:30:32;2.10;;;0.60;;
65533;SDS011;53640;55.838;37.184;2022-10-31T00:32:59;1.10;;;0.40;;
65533;SDS011;53640;55.838;37.184;2022-10-31T00:35:26;0.30;;;0.30;;
65533;SDS011;53640;55.838;37.184;2022-10-31T00:37:52;0.70;;;0.40;;
65533;SDS011;53640;55.838;37.184;2022-10-31T00:40:19;0.20;;;0.20;;
65533;SDS011;53640;55.838;37.184;2022-10-31T00:42:45;1.23;;;0.43;;
65533;SDS011;53640;55.838;37.184;2022-10-31T00:45:12;1.00;;;0.60;;
65533;SDS011;53640;55.838;37.184;2022-10-31T00:47:40;0.95;;;0.38;;
65533;SDS011;53640;55.838;37.184;2022-10-31T00:50:06;3.08;;;0.50;;
65533;SDS011;53640;55.838;37.184;2022-10-31T00:52:34;0.82;;;0.40;;
65533;SDS011;53640;55.838;37.184;2022-10-31T00:55:02;0.88;;;0.43;;
65533;SDS011;53640;55.838;37.184;2022-10-31T00:57:29;0.73;;;0.30;;
65533;SDS011;53640;55.838;37.184;2022-10-31T00:59:55;1.80;;;0.40;;
65533;SDS011;53640;55.838;37.184;2022-10-31T01:02:21;5.60;;;0.30;;
65533;SDS011;53640;55.838;37.184;2022-10-31T01:04:48;0.38;;;0.38;;
65533;SDS011;53640;55.838;37.184;2022-10-31T01:07:15;1.63;;;0.35;;
65533;SDS011;53640;55.838;37.184;2022-10-31T01:09:44;0.50;;;0.50;;
65533;SDS011;53640;55.838;37.184;2022-10-31T01:12:10;0.63;;;0.30;;
65533;SDS011;53640;55.838;37.184;2022-10-31T01:14:42;1.23;;;0.70;;
65533;SDS011;53640;55.838;37.184;2022-10-31T01:17:10;0.95;;;0.30;;
65533;SDS011;53640;55.838;37.184;2022-10-31T01:19:39;0.40;;;0.40;;
65533;SDS011;53640;55.838;37.184;2022-10-31T01:22:05;0.40;;;0.40;;
65533;SDS011;53640;55.838;37.184;2022-10-31T01:24:32;1.33;;;0.38;;
65533;SDS011;53640;55.838;37.184;2022-10-31T01:27:01;0.75;;;0.40;;
65533;SDS011;53640;55.838;37.184;2022-10-31T01:29:32;1.98;;;0.30;;
65533;SDS011;53640;55.838;37.184;2022-10-31T01:31:59;1.00;;;0.30;;
65533;SDS011;53640;55.838;37.184;2022-10-31T01:34:25;0.35;;;0.35;;
65533;SDS011;53640;55.838;37.184;2022-10-31T01:36:52;0.40;;;0.40;;
65533;SDS011;53640;55.838;37.184;2022-10-31T01:39:19;0.60;;;0.40;;
65533;SDS011;53640;55.838;37.184;2022-10-31T01:41:46;0.30;;;0.30;;
65533;SDS011;53640;55.838;37.184;2022-10-31T01:46:48;1.75;;;0.47;;
65533;SDS011;53640;55.838;37.184;2022-10-31T01:55:06;1.92;;;0.50;;
65533;SDS011;53640;55.838;37.184;2022-10-31T01:57:34;3.40;;;0.50;;
65533;SDS011;53640;55.838;37.184;2022-10-31T02:00:04;1.23;;;0.70;;
65533;SDS011;53640;55.838;37.184;2022-10-31T02:02:39;3.75;;;0.50;;
65533;SDS011;53640;55.838;37.184;2022-10-31T02:05:11;3.42;;;0.60;;
65533;SDS011;53640;55.838;37.184;2022-10-31T02:10:21;0.93;;;0.45;;
65533;SDS011;53640;55.838;37.184;2022-10-31T02:12:54;1.80;;;0.50;;
65533;SDS011;53640;55.838;37.184;2022-10-31T02:15:22;0.57;;;0.40;;
65533;SDS011;53640;55.838;37.184;2022-10-31T02:17:49;1.80;;;0.40;;
65533;SDS011;53640;55.838;37.184;2022-10-31T02:20:16;0.80;;;0.68;;
65533;SDS011;53640;55.838;37.184;2022-10-31T02:25:51;0.80;;;0.57;;
65533;SDS011;53640;55.838;37.184;2022-10-31T02:29:08;2.97;;;0.70;;
65533;SDS011;53640;55.838;37.184;2022-10-31T02:34:50;0.47;;;0.47;;
65533;SDS011;53640;55.838;37.184;2022-10-31T02:40:35;2.38;;;0.60;;
65533;SDS011;53640;55.838;37.184;2022-10-31T02:46:38;1.95;;;0.52;;
65533;SDS011;53640;55.838;37.184;2022-10-31T02:52:20;1.83;;;0.50;;
65533;SDS011;53640;55.838;37.184;2022-10-31T02:54:52;1.77;;;0.50;;
65533;SDS011;53640;55.838;37.184;2022-10-31T02:57:23;0.85;;;0.68;;
65533;SDS011;53640;55.838;37.184;2022-10-31T03:00:06;1.05;;;0.57;;
65533;SDS011;53640;55.838;37.184;2022-10-31T03:08:50;4.85;;;0.68;;
65533;SDS011;53640;55.838;37.184;2022-10-31T03:11:26;1.35;;;0.73;;
65533;SDS011;53640;55.838;37.184;2022-10-31T03:14:02;0.77;;;0.60;;
65533;SDS011;53640;55.838;37.184;2022-10-31T03:19:11;0.50;;;0.50;;
65533;SDS011;53640;55.838;37.184;2022-10-31T03:22:02;1.05;;;0.50;;
65533;SDS011;53640;55.838;37.184;2022-10-31T03:24:37;1.08;;;0.60;;
65533;SDS011;53640;55.838;37.184;2022-10-31T03:27:06;1.60;;;0.70;;
65533;SDS011;53640;55.838;37.184;2022-10-31T03:29:36;1.63;;;0.70;;
65533;SDS011;53640;55.838;37.184;2022-10-31T03:32:27;1.73;;;0.52;;
65533;SDS011;53640;55.838;37.184;2022-10-31T03:34:57;4.05;;;0.60;;
65533;SDS011;53640;55.838;37.184;2022-10-31T03:37:30;1.35;;;0.40;;
65533;SDS011;53640;55.838;37.184;2022-10-31T03:40:02;2.33;;;0.50;;
65533;SDS011;53640;55.838;37.184;2022-10-31T03:42:34;1.42;;;0.52;;
65533;SDS011;53640;55.838;37.184;2022-10-31T03:45:15;0.65;;;0.50;;
65533;SDS011;53640;55.838;37.184;2022-10-31T03:47:51;1.17;;;0.50;;
65533;SDS011;53640;55.838;37.184;2022-10-31T03:50:19;4.15;;;0.57;;
65533;SDS011;53640;55.838;37.184;2022-10-31T03:52:55;0.43;;;0.40;;
65533;SDS011;53640;55.838;37.184;2022-10-31T03:55:30;1.48;;;0.50;;
65533;SDS011;53640;55.838;37.184;2022-10-31T03:58:12;1.33;;;0.65;;
65533;SDS011;53640;55.838;37.184;2022-10-31T04:00:45;3.47;;;0.68;;
65533;SDS011;53640;55.838;37.184;2022-10-31T04:03:19;0.73;;;0.40;;
65533;SDS011;53640;55.838;37.184;2022-10-31T04:05:55;3.63;;;0.73;;
65533;SDS011;53640;55.838;37.184;2022-10-31T04:08:30;0.77;;;0.57;;
65533;SDS011;53640;55.838;37.184;2022-10-31T04:10:59;0.65;;;0.52;;
65533;SDS011;53640;55.838;37.184;2022-10-31T04:13:31;4.00;;;0.40;;
65533;SDS011;53640;55.838;37.184;2022-10-31T04:16:09;0.77;;;0.65;;
65533;SDS011;53640;55.838;37.184;2022-10-31T04:18:40;0.50;;;0.43;;
65533;SDS011;53640;55.838;37.184;2022-10-31T04:21:07;4.05;;;0.60;;
65533;SDS011;53640;55.838;37.184;2022-10-31T04:23:38;0.60;;;0.60;;
65533;SDS011;53640;55.838;37.184;2022-10-31T04:26:23;3.10;;;0.55;;
65533;SDS011;53640;55.838;37.184;2022-10-31T04:28:51;2.42;;;0.75;;
65533;SDS011;53640;55.838;37.184;2022-10-31T04:31:18;2.20;;;0.50;;
65533;SDS011;53640;55.838;37.184;2022-10-31T04:33:47;1.35;;;0.63;;
65533;SDS011;53640;55.838;37.184;2022-10-31T04:36:14;2.53;;;0.60;;
65533;SDS011;53640;55.838;37.184;2022-10-31T04:38:41;4.78;;;1.30;;
65533;SDS011;53640;55.838;37.184;2022-10-31T04:41:24;3.30;;;1.27;;
65533;SDS011;53640;55.838;37.184;2022-10-31T04:44:00;8.15;;;2.10;;
65533;SDS011;53640;55.838;37.184;2022-10-31T04:46:28;2.38;;;1.63;;
65533;SDS011;53640;55.838;37.184;2022-10-31T04:48:58;1.90;;;1.17;;
65533;SDS011;53640;55.838;37.184;2022-10-31T04:51:24;1.23;;;0.82;;
65533;SDS011;53640;55.838;37.184;2022-10-31T04:53:51;1.13;;;0.80;;
65533;SDS011;53640;55.838;37.184;2022-10-31T04:56:27;0.93;;;0.65;;
65533;SDS011;53640;55.838;37.184;2022-10-31T04:59:00;3.42;;;0.95;;
65533;SDS011;53640;55.838;37.184;2022-10-31T05:01:33;3.78;;;0.85;;
65533;SDS011;53640;55.838;37.184;2022-10-31T05:04:00;1.35;;;0.90;;
65533;SDS011;53640;55.838;37.184;2022-10-31T05:06:28;2.95;;;0.85;;
65533;SDS011;53640;55.838;37.184;2022-10-31T05:08:55;2.10;;;1.00;;
65533;SDS011;53640;55.838;37.184;2022-10-31T05:11:26;4.88;;;0.98;;
65533;SDS011;53640;55.838;37.184;2022-10-31T05:13:57;5.55;;;0.90;;
65533;SDS011;53640;55.838;37.184;2022-10-31T05:16:56;1.67;;;0.90;;
65533;SDS011;53640;55.838;37.184;2022-10-31T05:19:54;4.72;;;0.98;;
65533;SDS011;53640;55.838;37.184;2022-10-31T05:22:54;2.38;;;0.60;;
65533;SDS011;53640;55.838;37.184;2022-10-31T05:26:59;3.13;;;0.57;;
65533;SDS011;53640;55.838;37.184;2022-10-31T05:29:29;0.85;;;0.80;;
65533;SDS011;53640;55.838;37.184;2022-10-31T05:32:00;1.15;;;0.70;;
65533;SDS011;53640;55.838;37.184;2022-10-31T05:34:56;1.92;;;0.80;;
65533;SDS011;53640;55.838;37.184;2022-10-31T05:37:54;1.13;;;0.88;;
65533;SDS011;53640;55.838;37.184;2022-10-31T05:40:24;2.38;;;0.60;;
65533;SDS011;53640;55.838;37.184;2022-10-31T05:43:04;0.80;;;0.70;;
65533;SDS011;53640;55.838;37.184;2022-10-31T05:45:31;3.75;;;1.17;;
65533;SDS011;53640;55.838;37.184;2022-10-31T05:48:12;0.95;;;0.70;;
65533;SDS011;53640;55.838;37.184;2022-10-31T05:51:01;3.88;;;0.90;;
65533;SDS011;53640;55.838;37.184;2022-10-31T05:53:27;0.82;;;0.70;;
65533;SDS011;53640;55.838;37.184;2022-10-31T05:55:57;1.00;;;1.00;;
65533;SDS011;53640;55.838;37.184;2022-10-31T05:58:25;2.78;;;0.85;;
65533;SDS011;53640;55.838;37.184;2022-10-31T06:01:05;4.35;;;0.93;;
65533;SDS011;53640;55.838;37.184;2022-10-31T06:03:33;0.90;;;0.90;;
65533;SDS011;53640;55.838;37.184;2022-10-31T06:06:03;0.60;;;0.60;;
65533;SDS011;53640;55.838;37.184;2022-10-31T06:08:35;1.90;;;0.50;;
65533;SDS011;53640;55.838;37.184;2022-10-31T06:11:27;0.50;;;0.50;;
65533;SDS011;53640;55.838;37.184;2022-10-31T06:13:59;0.82;;;0.60;;
65533;SDS011;53640;55.838;37.184;2022-10-31T06:17:03;2.30;;;0.70;;
65533;SDS011;53640;55.838;37.184;2022-10-31T06:19:58;1.85;;;0.60;;
65533;SDS011;53640;55.838;37.184;2022-10-31T06:22:30;1.27;;;0.60;;
65533;SDS011;53640;55.838;37.184;2022-10-31T06:24:58;0.60;;;0.60;;
65533;SDS011;53640;55.838;37.184;2022-10-31T06:27:30;1.20;;;0.50;;
65533;SDS011;53640;55.838;37.184;2022-10-31T06:30:06;0.95;;;0.50;;
65533;SDS011;53640;55.838;37.184;2022-10-31T06:32:36;1.38;;;0.60;;
65533;SDS011;53640;55.838;37.184;2022-10-31T06:35:02;0.50;;;0.50;;
65533;SDS011;53640;55.838;37.184;2022-10-31T06:37:29;0.50;;;0.47;;
65533;SDS011;53640;55.838;37.184;2022-10-31T06:40:02;0.70;;;0.63;;
65533;SDS011;53640;55.838;37.184;2022-10-31T06:42:34;0.85;;;0.70;;
65533;SDS011;53640;55.838;37.184;2022-10-31T06:45:01;3.22;;;0.90;;
65533;SDS011;53640;55.838;37.184;2022-10-31T06:47:52;1.60;;;0.98;;
65533;SDS011;53640;55.838;37.184;2022-10-31T06:50:26;1.15;;;0.80;;
65533;SDS011;53640;55.838;37.184;2022-10-31T06:52:57;1.55;;;0.80;;
65533;SDS011;53640;55.838;37.184;2022-10-31T06:55:25;1.17;;;0.75;;
65533;SDS011;53640;55.838;37.184;2022-10-31T06:57:54;1.92;;;0.40;;
65533;SDS011;53640;55.838;37.184;2022-10-31T07:00:22;0.73;;;0.50;;
65533;SDS011;53640;55.838;37.184;2022-10-31T07:03:03;0.90;;;0.52;;
65533;SDS011;53640;55.838;37.184;2022-10-31T07:06:03;1.10;;;0.63;;
65533;SDS011;53640;55.838;37.184;2022-10-31T07:08:31;0.50;;;0.50;;
65533;SDS011;53640;55.838;37.184;2022-10-31T07:10:59;0.73;;;0.73;;
65533;SDS011;53640;55.838;37.184;2022-10-31T07:13:28;0.68;;;0.60;;
65533;SDS011;53640;55.838;37.184;2022-10-31T07:16:05;1.45;;;0.50;;
65533;SDS011;53640;55.838;37.184;2022-10-31T07:18:39;0.85;;;0.70;;
65533;SDS011;53640;55.838;37.184;2022-10-31T07:21:08;1.15;;;0.60;;
65533;SDS011;53640;55.838;37.184;2022-10-31T07:23:34;0.60;;;0.50;;
65533;SDS011;53640;55.838;37.184;2022-10-31T07:26:20;0.88;;;0.70;;
65533;SDS011;53640;55.838;37.184;2022-10-31T07:28:50;0.82;;;0.68;;
65533;SDS011;53640;55.838;37.184;2022-10-31T07:31:20;0.43;;;0.40;;
65533;SDS011;53640;55.838;37.184;2022-10-31T07:33:50;0.75;;;0.55;;
65533;SDS011;53640;55.838;37.184;2022-10-31T07:36:23;2.15;;;0.50;;
65533;SDS011;53640;55.838;37.184;2022-10-31T07:38:54;0.40;;;0.40;;
65533;SDS011;53640;55.838;37.184;2022-10-31T07:41:20;0.70;;;0.50;;
65533;SDS011;53640;55.838;37.184;2022-10-31T07:43:47;1.27;;;0.60;;
65533;SDS011;53640;55.838;37.184;2022-10-31T07:46:16;0.80;;;0.50;;
65533;SDS011;53640;55.838;37.184;2022-10-31T07:49:01;0.82;;;0.50;;
65533;SDS011;53640;55.838;37.184;2022-10-31T07:51:56;1.80;;;0.80;;
65533;SDS011;53640;55.838;37.184;2022-10-31T07:54:49;1.75;;;0.90;;
65533;SDS011;53640;55.838;37.184;2022-10-31T07:59:48;1.65;;;0.80;;
65533;SDS011;53640;55.838;37.184;2022-10-31T08:02:17;0.60;;;0.52;;
65533;SDS011;53640;55.838;37.184;2022-10-31T08:04:46;0.68;;;0.60;;
65533;SDS011;53640;55.838;37.184;2022-10-31T08:07:29;0.50;;;0.40;;
65533;SDS011;53640;55.838;37.184;2022-10-31T08:10:05;0.95;;;0.50;;
65533;SDS011;53640;55.838;37.184;2022-10-31T08:12:33;1.20;;;0.70;;
65533;SDS011;53640;55.838;37.184;2022-10-31T08:15:00;0.85;;;0.85;;
65533;SDS011;53640;55.838;37.184;2022-10-31T08:17:29;1.50;;;0.70;;
65533;SDS011;53640;55.838;37.184;2022-10-31T08:19:58;1.52;;;1.20;;
65533;SDS011;53640;55.838;37.184;2022-10-31T08:22:32;1.33;;;0.60;;
65533;SDS011;53640;55.838;37.184;2022-10-31T08:25:02;0.90;;;0.73;;
65533;SDS011;53640;55.838;37.184;2022-10-31T08:27:29;0.32;;;0.32;;
65533;SDS011;53640;55.838;37.184;2022-10-31T08:30:00;0.60;;;0.60;;
65533;SDS011;53640;55.838;37.184;2022-10-31T08:32:29;0.40;;;0.40;;
65533;SDS011;53640;55.838;37.184;2022-10-31T08:35:31;1.10;;;0.60;;
65533;SDS011;53640;55.838;37.184;2022-10-31T08:38:19;0.77;;;0.60;;
65533;SDS011;53640;55.838;37.184;2022-10-31T08:40:48;1.30;;;0.70;;
65533;SDS011;53640;55.838;37.184;2022-10-31T08:43:19;1.25;;;0.95;;
65533;SDS011;53640;55.838;37.184;2022-10-31T08:45:50;0.82;;;0.80;;
65533;SDS011;53640;55.838;37.184;2022-10-31T08:48:28;0.77;;;0.77;;
65533;SDS011;53640;55.838;37.184;2022-10-31T08:50:56;0.98;;;0.90;;
65533;SDS011;53640;55.838;37.184;2022-10-31T08:53:28;2.67;;;0.80;;
65533;SDS011;53640;55.838;37.184;2022-10-31T08:56:17;0.90;;;0.50;;
65533;SDS011;53640;55.838;37.184;2022-10-31T08:58:46;2.55;;;0.82;;
65533;SDS011;53640;55.838;37.184;2022-10-31T09:01:17;0.50;;;0.50;;
65533;SDS011;53640;55.838;37.184;2022-10-31T09:03:44;0.60;;;0.60;;
65533;SDS011;53640;55.838;37.184;2022-10-31T09:06:10;0.60;;;0.60;;
65533;SDS011;53640;55.838;37.184;2022-10-31T09:08:37;0.60;;;0.60;;
65533;SDS011;53640;55.838;37.184;2022-10-31T09:11:04;0.50;;;0.50;;
65533;SDS011;53640;55.838;37.184;2022-10-31T09:13:51;0.68;;;0.63;;
65533;SDS011;53640;55.838;37.184;2022-10-31T09:16:47;1.65;;;0.50;;
65533;SDS011;53640;55.838;37.184;2022-10-31T09:19:20;1.23;;;0.60;;
65533;SDS011;53640;55.838;37.184;2022-10-31T09:21:47;0.57;;;0.40;;
65533;SDS011;53640;55.838;37.184;2022-10-31T09:24:17;0.60;;;0.57;;
65533;SDS011;53640;55.838;37.184;2022-10-31T09:26:44;1.38;;;0.60;;
65533;SDS011;53640;55.838;37.184;2022-10-31T09:29:19;1.20;;;1.10;;
65533;SDS011;53640;55.838;37.184;2022-10-31T09:31:52;2.10;;;2.00;;
65533;SDS011;53640;55.838;37.184;2022-10-31T09:34:28;1.05;;;1.05;;
65533;SDS011;53640;55.838;37.184;2022-10-31T09:37:13;1.02;;;0.70;;
65533;SDS011;53640;55.838;37.184;2022-10-31T09:39:40;0.60;;;0.60;;
65533;SDS011;53640;55.838;37.184;2022-10-31T09:45:23;1.17;;;0.40;;
65533;SDS011;53640;55.838;37.184;2022-10-31T09:51:20;0.45;;;0.40;;
65533;SDS011;53640;55.838;37.184;2022-10-31T09:54:02;0.43;;;0.35;;
65533;SDS011;53640;55.838;37.184;2022-10-31T09:56:34;0.70;;;0.70;;
65533;SDS011;53640;55.838;37.184;2022-10-31T09:59:02;1.85;;;0.60;;
65533;SDS011;53640;55.838;37.184;2022-10-31T10:01:42;0.95;;;0.50;;
65533;SDS011;53640;55.838;37.184;2022-10-31T10:04:19;1.48;;;0.60;;
65533;SDS011;53640;55.838;37.184;2022-10-31T10:07:22;0.47;;;0.47;;
65533;SDS011;53640;55.838;37.184;2022-10-31T10:10:22;0.50;;;0.50;;
65533;SDS011;53640;55.838;37.184;2022-10-31T10:32:43;0.75;;;0.60;;
65533;SDS011;53640;55.838;37.184;2022-10-31T10:37:43;0.55;;;0.40;;
65533;SDS011;53640;55.838;37.184;2022-10-31T10:40:46;0.50;;;0.50;;
65533;SDS011;53640;55.838;37.184;2022-10-31T10:43:19;1.40;;;0.68;;
65533;SDS011;53640;55.838;37.184;2022-10-31T10:49:03;0.60;;;0.60;;
65533;SDS011;53640;55.838;37.184;2022-10-31T10:51:44;0.50;;;0.40;;
65533;SDS011;53640;55.838;37.184;2022-10-31T10:54:17;0.60;;;0.60;;
65533;SDS011;53640;55.838;37.184;2022-10-31T10:59:57;0.45;;;0.45;;
65533;SDS011;53640;55.838;37.184;2022-10-31T11:02:29;0.30;;;0.30;;
65533;SDS011;53640;55.838;37.184;2022-10-31T11:04:59;1.25;;;0.60;;
65533;SDS011;53640;55.838;37.184;2022-10-31T11:07:39;0.52;;;0.52;;
65533;SDS011;53640;55.838;37.184;2022-10-31T11:10:06;1.92;;;0.50;;
65533;SDS011;53640;55.838;37.184;2022-10-31T11:12:40;0.47;;;0.40;;
65533;SDS011;53640;55.838;37.184;2022-10-31T11:15:17;0.30;;;0.30;;
65533;SDS011;53640;55.838;37.184;2022-10-31T11:18:18;1.02;;;0.60;;
65533;SDS011;53640;55.838;37.184;2022-10-31T11:20:52;1.60;;;0.35;;
65533;SDS011;53640;55.838;37.184;2022-10-31T11:23:20;4.35;;;0.60;;
65533;SDS011;53640;55.838;37.184;2022-10-31T11:28:23;0.50;;;0.50;;
65533;SDS011;53640;55.838;37.184;2022-10-31T11:30:55;1.77;;;0.85;;
65533;SDS011;53640;55.838;37.184;2022-10-31T11:33:27;1.00;;;0.55;;
65533;SDS011;53640;55.838;37.184;2022-10-31T11:36:03;1.40;;;0.63;;
65533;SDS011;53640;55.838;37.184;2022-10-31T11:38:41;1.10;;;0.68;;
65533;SDS011;53640;55.838;37.184;2022-10-31T11:41:30;0.70;;;0.70;;
65533;SDS011;53640;55.838;37.184;2022-10-31T11:44:00;0.85;;;0.73;;
65533;SDS011;53640;55.838;37.184;2022-10-31T11:46:37;0.77;;;0.60;;
65533;SDS011;53640;55.838;37.184;2022-10-31T11:49:17;1.00;;;0.70;;
65533;SDS011;53640;55.838;37.184;2022-10-31T11:51:47;2.95;;;1.70;;
65533;SDS011;53640;55.838;37.184;2022-10-31T11:54:31;0.70;;;0.70;;
65533;SDS011;53640;55.838;37.184;2022-10-31T11:57:04;3.03;;;1.05;;
65533;SDS011;53640;55.838;37.184;2022-10-31T11:59:51;1.10;;;1.00;;
65533;SDS011;53640;55.838;37.184;2022-10-31T12:02:20;1.02;;;0.90;;
65533;SDS011;53640;55.838;37.184;2022-10-31T12:04:50;0.98;;;0.70;;
65533;SDS011;53640;55.838;37.184;2022-10-31T12:07:37;2.05;;;0.65;;
65533;SDS011;53640;55.838;37.184;2022-10-31T12:10:10;1.95;;;0.80;;
65533;SDS011;53640;55.838;37.184;2022-10-31T12:12:44;0.70;;;0.70;;
65533;SDS011;53640;55.838;37.184;2022-10-31T12:21:32;1.35;;;0.70;;
65533;SDS011;53640;55.838;37.184;2022-10-31T12:30:36;1.48;;;1.10;;
65533;SDS011;53640;55.838;37.184;2022-10-31T12:43:46;1.27;;;1.05;;
65533;SDS011;53640;55.838;37.184;2022-10-31T12:46:24;4.10;;;1.40;;
65533;SDS011;53640;55.838;37.184;2022-10-31T12:51:51;1.40;;;1.15;;
65533;SDS011;53640;55.838;37.184;2022-10-31T13:00:31;0.73;;;0.73;;
65533;SDS011;53640;55.838;37.184;2022-10-31T13:05:56;0.77;;;0.70;;
65533;SDS011;53640;55.838;37.184;2022-10-31T13:08:28;0.70;;;0.70;;
65533;SDS011;53640;55.838;37.184;2022-10-31T13:13:38;0.68;;;0.60;;
65533;SDS011;53640;55.838;37.184;2022-10-31T13:16:22;2.00;;;0.82;;
65533;SDS011;53640;55.838;37.184;2022-10-31T13:19:05;1.53;;;0.80;;
65533;SDS011;53640;55.838;37.184;2022-10-31T13:24:26;0.88;;;0.60;;
65533;SDS011;53640;55.838;37.184;2022-10-31T13:27:01;1.42;;;0.80;;
65533;SDS011;53640;55.838;37.184;2022-10-31T13:29:42;1.55;;;0.90;;
65533;SDS011;53640;55.838;37.184;2022-10-31T13:32:14;1.00;;;0.80;;
65533;SDS011;53640;55.838;37.184;2022-10-31T13:34:44;1.17;;;0.70;;
65533;SDS011;53640;55.838;37.184;2022-10-31T13:40:34;1.30;;;1.00;;
65533;SDS011;53640;55.838;37.184;2022-10-31T13:43:21;0.83;;;0.70;;
65533;SDS011;53640;55.838;37.184;2022-10-31T13:45:55;0.70;;;0.70;;
65533;SDS011;53640;55.838;37.184;2022-10-31T13:50:58;6.03;;;0.85;;
65533;SDS011;53640;55.838;37.184;2022-10-31T13:56:31;2.63;;;1.02;;
65533;SDS011;53640;55.838;37.184;2022-10-31T13:59:01;0.73;;;0.73;;
65533;SDS011;53640;55.838;37.184;2022-10-31T14:01:28;2.10;;;1.23;;
65533;SDS011;53640;55.838;37.184;2022-10-31T14:04:02;2.10;;;0.80;;
65533;SDS011;53640;55.838;37.184;2022-10-31T14:06:53;0.77;;;0.70;;
65533;SDS011;53640;55.838;37.184;2022-10-31T14:09:27;2.03;;;1.00;;
65533;SDS011;53640;55.838;37.184;2022-10-31T14:11:57;1.88;;;0.98;;
65533;SDS011;53640;55.838;37.184;2022-10-31T14:14:29;1.23;;;0.90;;
65533;SDS011;53640;55.838;37.184;2022-10-31T14:17:00;3.47;;;1.20;;
65533;SDS011;53640;55.838;37.184;2022-10-31T14:19:27;1.05;;;1.00;;
65533;SDS011;53640;55.838;37.184;2022-10-31T14:21:54;2.15;;;1.00;;
65533;SDS011;53640;55.838;37.184;2022-10-31T14:26:54;1.00;;;0.80;;
65533;SDS011;53640;55.838;37.184;2022-10-31T14:29:24;0.80;;;0.80;;
65533;SDS011;53640;55.838;37.184;2022-10-31T14:31:54;3.00;;;0.90;;
65533;SDS011;53640;55.838;37.184;2022-10-31T14:34:57;1.42;;;1.02;;
65533;SDS011;53640;55.838;37.184;2022-10-31T14:40:19;1.75;;;0.93;;
65533;SDS011;53640;55.838;37.184;2022-10-31T14:45:38;2.45;;;1.00;;
65533;SDS011;53640;55.838;37.184;2022-10-31T14:53:53;1.42;;;1.00;;
65533;SDS011;53640;55.838;37.184;2022-10-31T14:56:26;1.40;;;1.30;;
65533;SDS011;53640;55.838;37.184;2022-10-31T14:58:56;1.13;;;1.02;;
65533;SDS011;53640;55.838;37.184;2022-10-31T15:01:35;1.50;;;1.00;;
65533;SDS011;53640;55.838;37.184;2022-10-31T15:04:05;1.45;;;1.30;;
65533;SDS011;53640;55.838;37.184;2022-10-31T15:09:28;1.10;;;1.00;;
65533;SDS011;53640;55.838;37.184;2022-10-31T15:14:50;1.70;;;0.95;;
65533;SDS011;53640;55.838;37.184;2022-10-31T15:17:17;1.33;;;1.23;;
65533;SDS011;53640;55.838;37.184;2022-10-31T15:19:44;2.10;;;1.10;;
65533;SDS011;53640;55.838;37.184;2022-10-31T15:22:22;1.30;;;0.98;;
65533;SDS011;53640;55.838;37.184;2022-10-31T15:24:50;0.95;;;0.90;;
65533;SDS011;53640;55.838;37.184;2022-10-31T15:27:22;2.15;;;1.35;;
65533;SDS011;53640;55.838;37.184;2022-10-31T15:29:54;1.98;;;1.00;;
65533;SDS011;53640;55.838;37.184;2022-10-31T15:32:22;1.13;;;0.90;;
65533;SDS011;53640;55.838;37.184;2022-10-31T15:34:57;2.50;;;1.10;;
65533;SDS011;53640;55.838;37.184;2022-10-31T15:37:26;2.67;;;1.00;;
65533;SDS011;53640;55.838;37.184;2022-10-31T15:39:55;2.10;;;1.20;;
65533;SDS011;53640;55.838;37.184;2022-10-31T15:42:40;3.40;;;1.30;;
65533;SDS011;53640;55.838;37.184;2022-10-31T15:47:37;1.45;;;0.90;;
65533;SDS011;53640;55.838;37.184;2022-10-31T15:50:05;0.82;;;0.82;;
65533;SDS011;53640;55.838;37.184;2022-10-31T15:52:46;1.98;;;0.77;;
65533;SDS011;53640;55.838;37.184;2022-10-31T15:55:19;2.15;;;1.33;;
65533;SDS011;53640;55.838;37.184;2022-10-31T15:57:49;2.13;;;0.75;;
65533;SDS011;53640;55.838;37.184;2022-10-31T16:00:26;0.90;;;0.70;;
65533;SDS011;53640;55.838;37.184;2022-10-31T16:05:55;2.88;;;1.05;;
65533;SDS011;53640;55.838;37.184;2022-10-31T16:08:24;4.15;;;1.60;;
65533;SDS011;53640;55.838;37.184;2022-10-31T16:11:16;1.67;;;0.77;;
65533;SDS011;53640;55.838;37.184;2022-10-31T16:14:06;1.27;;;0.80;;
65533;SDS011;53640;55.838;37.184;2022-10-31T16:16:41;0.70;;;0.70;;
65533;SDS011;53640;55.838;37.184;2022-10-31T16:22:09;1.92;;;1.23;;
65533;SDS011;53640;55.838;37.184;2022-10-31T16:27:31;1.55;;;0.80;;
65533;SDS011;53640;55.838;37.184;2022-10-31T16:30:00;1.27;;;0.73;;
65533;SDS011;53640;55.838;37.184;2022-10-31T16:32:37;1.40;;;1.00;;
65533;SDS011;53640;55.838;37.184;2022-10-31T16:35:26;0.88;;;0.70;;
65533;SDS011;53640;55.838;37.184;2022-10-31T16:38:01;0.85;;;0.85;;
65533;SDS011;53640;55.838;37.184;2022-10-31T16:40:28;0.88;;;0.70;;
65533;SDS011;53640;55.838;37.184;2022-10-31T16:42:56;1.27;;;1.20;;
65533;SDS011;53640;55.838;37.184;2022-10-31T16:45:25;1.55;;;0.90;;
65533;SDS011;53640;55.838;37.184;2022-10-31T16:48:01;0.52;;;0.50;;
65533;SDS011;53640;55.838;37.184;2022-10-31T16:50:30;1.08;;;1.00;;
65533;SDS011;53640;55.838;37.184;2022-10-31T16:52:57;1.30;;;0.98;;
65533;SDS011;53640;55.838;37.184;2022-10-31T16:55:24;1.20;;;1.10;;
65533;SDS011;53640;55.838;37.184;2022-10-31T16:57:51;1.13;;;0.95;;
65533;SDS011;53640;55.838;37.184;2022-10-31T17:00:21;2.15;;;1.13;;
65533;SDS011;53640;55.838;37.184;2022-10-31T17:02:52;1.05;;;0.90;;
65533;SDS011;53640;55.838;37.184;2022-10-31T17:05:23;1.00;;;0.90;;
65533;SDS011;53640;55.838;37.184;2022-10-31T17:07:56;1.50;;;0.80;;
65533;SDS011;53640;55.838;37.184;2022-10-31T17:10:24;0.85;;;0.77;;
65533;SDS011;53640;55.838;37.184;2022-10-31T17:12:52;1.92;;;1.08;;
65533;SDS011;53640;55.838;37.184;2022-10-31T17:15:20;0.90;;;0.80;;
65533;SDS011;53640;55.838;37.184;2022-10-31T17:17:50;5.82;;;0.85;;
65533;SDS011;53640;55.838;37.184;2022-10-31T17:20:24;0.70;;;0.70;;
65533;SDS011;53640;55.838;37.184;2022-10-31T17:22:53;0.63;;;0.63;;
65533;SDS011;53640;55.838;37.184;2022-10-31T17:25:21;1.55;;;0.98;;
65533;SDS011;53640;55.838;37.184;2022-10-31T17:27:49;1.85;;;0.85;;
65533;SDS011;53640;55.838;37.184;2022-10-31T17:30:16;1.08;;;0.98;;
65533;SDS011;53640;55.838;37.184;2022-10-31T17:32:46;1.10;;;0.80;;
65533;SDS011;53640;55.838;37.184;2022-10-31T17:35:14;0.95;;;0.80;;
65533;SDS011;53640;55.838;37.184;2022-10-31T17:38:00;0.73;;;0.70;;
65533;SDS011;53640;55.838;37.184;2022-10-31T17:40:26;2.28;;;0.77;;
65533;SDS011;53640;55.838;37.184;2022-10-31T17:42:53;2.83;;;0.93;;
65533;SDS011;53640;55.838;37.184;2022-10-31T17:45:22;0.80;;;0.80;;
65533;SDS011;53640;55.838;37.184;2022-10-31T17:47:50;1.50;;;0.90;;